Strona główna
METAR-TAF:

METAR-TAF

Lotnisko :

Hrabstwo Ocean, New Jersey, Stany Zjednoczone

Szerokość geograficzna: 39-55-39N, Długość geograficzna: 074-17-33W, wysokość: 25 m

Aktualna obserwacja pogody

Raport powstał 49 minut temu, godzina 17:56 UTC
Wiatr 11 kt od południowo-południowy zachód
Temperatura 8°C
Wilgotność 42%
Ciśnienie 1024 hPa
Widzialność: 16.1 km
Mało chmury na wysokości 3900 ft
Zachmurzenie całkowite na wysokości 9000 ft

METAR: KMJX 231756Z AUTO 21011KT 10SM FEW039 OVC090 08/M04 A3023 RMK AO2 SLP243 T00831039 10083 20000 58037

czas: 13:45 (18:45 UTC)


TAF: brakujący

Obserwacja i prognoza pogody dla ponad 4000 lotnisk (raport METAR i TAF).

Dostępne stacje oznaczono żółtymi i czerwonymi punktami na mapie.

Najedź kursorem aby zobaczyć nazwę stacji.

Kliknij aby zobaczyć obserwacje i prognozy pogody.

Aby zmienić mapę: kliknij na zielony przycisk z czarnym krzyżykiem, aby powiększyć; na zielony przycisk z myślnikiem, aby pomniejszyć; na zielone strzałki, aby przejść do map sąsiednich.


METAR-TAF: